sensor_id;sensor_type;location;lat;lon;timestamp;P1;durP1;ratioP1;P2;durP2;ratioP2
21166;SDS011;10741;52.272;9.580;2023-02-04T00:00:16;27.80;;;5.10;;
21166;SDS011;10741;52.272;9.580;2023-02-04T00:02:44;27.63;;;4.80;;
21166;SDS011;10741;52.272;9.580;2023-02-04T00:05:10;23.17;;;4.43;;
21166;SDS011;10741;52.272;9.580;2023-02-04T00:07:37;30.07;;;4.50;;
21166;SDS011;10741;52.272;9.580;2023-02-04T00:10:03;28.33;;;4.47;;
21166;SDS011;10741;52.272;9.580;2023-02-04T00:12:30;28.07;;;4.87;;
21166;SDS011;10741;52.272;9.580;2023-02-04T00:14:56;29.37;;;4.50;;
21166;SDS011;10741;52.272;9.580;2023-02-04T00:17:22;27.00;;;4.00;;
21166;SDS011;10741;52.272;9.580;2023-02-04T00:19:48;26.83;;;4.17;;
21166;SDS011;10741;52.272;9.580;2023-02-04T00:22:13;28.40;;;4.27;;
21166;SDS011;10741;52.272;9.580;2023-02-04T00:24:39;32.83;;;4.23;;
21166;SDS011;10741;52.272;9.580;2023-02-04T00:27:07;28.63;;;4.17;;
21166;SDS011;10741;52.272;9.580;2023-02-04T00:29:33;22.83;;;4.40;;
21166;SDS011;10741;52.272;9.580;2023-02-04T00:31:58;23.80;;;3.40;;
21166;SDS011;10741;52.272;9.580;2023-02-04T00:34:24;21.77;;;4.03;;
21166;SDS011;10741;52.272;9.580;2023-02-04T00:36:50;26.97;;;4.50;;
21166;SDS011;10741;52.272;9.580;2023-02-04T00:39:16;22.20;;;3.90;;
21166;SDS011;10741;52.272;9.580;2023-02-04T00:41:41;24.97;;;4.33;;
21166;SDS011;10741;52.272;9.580;2023-02-04T00:44:07;17.33;;;3.33;;
21166;SDS011;10741;52.272;9.580;2023-02-04T00:46:33;28.50;;;3.87;;
21166;SDS011;10741;52.272;9.580;2023-02-04T00:48:59;23.07;;;3.10;;
21166;SDS011;10741;52.272;9.580;2023-02-04T00:51:24;22.77;;;2.97;;
21166;SDS011;10741;52.272;9.580;2023-02-04T00:53:50;20.77;;;3.13;;
21166;SDS011;10741;52.272;9.580;2023-02-04T00:56:16;21.73;;;3.57;;
21166;SDS011;10741;52.272;9.580;2023-02-04T00:58:42;16.03;;;2.67;;
21166;SDS011;10741;52.272;9.580;2023-02-04T01:01:07;17.10;;;3.30;;
21166;SDS011;10741;52.272;9.580;2023-02-04T01:03:33;18.27;;;3.20;;
21166;SDS011;10741;52.272;9.580;2023-02-04T01:05:59;21.47;;;3.20;;
21166;SDS011;10741;52.272;9.580;2023-02-04T01:08:24;27.23;;;3.97;;
21166;SDS011;10741;52.272;9.580;2023-02-04T01:10:50;19.30;;;3.70;;
21166;SDS011;10741;52.272;9.580;2023-02-04T01:13:16;26.80;;;3.93;;
21166;SDS011;10741;52.272;9.580;2023-02-04T01:15:42;20.77;;;3.37;;
21166;SDS011;10741;52.272;9.580;2023-02-04T01:18:07;22.73;;;3.87;;
21166;SDS011;10741;52.272;9.580;2023-02-04T01:20:33;19.90;;;3.37;;
21166;SDS011;10741;52.272;9.580;2023-02-04T01:22:59;31.23;;;4.87;;
21166;SDS011;10741;52.272;9.580;2023-02-04T01:25:25;31.03;;;4.83;;
21166;SDS011;10741;52.272;9.580;2023-02-04T01:27:51;32.13;;;3.70;;
21166;SDS011;10741;52.272;9.580;2023-02-04T01:30:16;23.50;;;4.33;;
21166;SDS011;10741;52.272;9.580;2023-02-04T01:32:42;32.40;;;3.40;;
21166;SDS011;10741;52.272;9.580;2023-02-04T01:35:08;22.10;;;3.83;;
21166;SDS011;10741;52.272;9.580;2023-02-04T01:37:34;18.27;;;3.10;;
21166;SDS011;10741;52.272;9.580;2023-02-04T01:39:59;24.63;;;3.30;;
21166;SDS011;10741;52.272;9.580;2023-02-04T01:42:25;12.97;;;2.70;;
21166;SDS011;10741;52.272;9.580;2023-02-04T01:44:51;17.40;;;2.53;;
21166;SDS011;10741;52.272;9.580;2023-02-04T01:47:17;19.13;;;2.60;;
21166;SDS011;10741;52.272;9.580;2023-02-04T01:49:44;12.80;;;2.33;;
21166;SDS011;10741;52.272;9.580;2023-02-04T01:52:15;12.57;;;2.50;;
21166;SDS011;10741;52.272;9.580;2023-02-04T01:54:41;19.40;;;3.37;;
21166;SDS011;10741;52.272;9.580;2023-02-04T01:57:08;15.27;;;3.00;;
21166;SDS011;10741;52.272;9.580;2023-02-04T01:59:40;12.37;;;2.07;;
21166;SDS011;10741;52.272;9.580;2023-02-04T02:05:03;8.33;;;1.83;;
21166;SDS011;10741;52.272;9.580;2023-02-04T02:07:29;10.67;;;1.70;;
21166;SDS011;10741;52.272;9.580;2023-02-04T02:09:55;11.97;;;2.10;;
21166;SDS011;10741;52.272;9.580;2023-02-04T02:12:21;10.13;;;1.83;;
21166;SDS011;10741;52.272;9.580;2023-02-04T02:14:47;13.27;;;2.03;;
21166;SDS011;10741;52.272;9.580;2023-02-04T02:17:12;10.83;;;1.87;;
21166;SDS011;10741;52.272;9.580;2023-02-04T02:19:38;13.30;;;2.23;;
21166;SDS011;10741;52.272;9.580;2023-02-04T02:22:48;17.63;;;2.90;;
21166;SDS011;10741;52.272;9.580;2023-02-04T02:24:56;11.43;;;1.77;;
21166;SDS011;10741;52.272;9.580;2023-02-04T02:27:22;8.93;;;1.50;;
21166;SDS011;10741;52.272;9.580;2023-02-04T02:29:47;7.47;;;1.50;;
21166;SDS011;10741;52.272;9.580;2023-02-04T02:32:15;10.63;;;1.67;;
21166;SDS011;10741;52.272;9.580;2023-02-04T02:34:41;10.27;;;1.33;;
21166;SDS011;10741;52.272;9.580;2023-02-04T02:37:08;4.23;;;1.07;;
21166;SDS011;10741;52.272;9.580;2023-02-04T02:39:35;7.67;;;1.57;;
21166;SDS011;10741;52.272;9.580;2023-02-04T02:42:02;5.73;;;1.33;;
21166;SDS011;10741;52.272;9.580;2023-02-04T02:44:28;6.97;;;1.30;;
21166;SDS011;10741;52.272;9.580;2023-02-04T02:46:55;7.10;;;1.00;;
21166;SDS011;10741;52.272;9.580;2023-02-04T02:49:22;4.20;;;1.13;;
21166;SDS011;10741;52.272;9.580;2023-02-04T02:51:47;7.67;;;1.20;;
21166;SDS011;10741;52.272;9.580;2023-02-04T02:54:21;12.10;;;1.57;;
21166;SDS011;10741;52.272;9.580;2023-02-04T02:56:51;7.23;;;1.40;;
21166;SDS011;10741;52.272;9.580;2023-02-04T02:59:18;6.57;;;1.23;;
21166;SDS011;10741;52.272;9.580;2023-02-04T03:01:44;12.53;;;1.73;;
21166;SDS011;10741;52.272;9.580;2023-02-04T03:04:14;6.40;;;1.50;;
21166;SDS011;10741;52.272;9.580;2023-02-04T03:06:41;10.80;;;1.40;;
21166;SDS011;10741;52.272;9.580;2023-02-04T03:09:07;8.57;;;1.43;;
21166;SDS011;10741;52.272;9.580;2023-02-04T03:11:33;7.23;;;1.30;;
21166;SDS011;10741;52.272;9.580;2023-02-04T03:13:59;7.47;;;1.50;;
21166;SDS011;10741;52.272;9.580;2023-02-04T03:16:26;6.17;;;1.20;;
21166;SDS011;10741;52.272;9.580;2023-02-04T03:18:54;8.37;;;1.27;;
21166;SDS011;10741;52.272;9.580;2023-02-04T03:21:20;9.03;;;1.43;;
21166;SDS011;10741;52.272;9.580;2023-02-04T03:23:46;10.83;;;1.40;;
21166;SDS011;10741;52.272;9.580;2023-02-04T03:26:12;6.60;;;1.67;;
21166;SDS011;10741;52.272;9.580;2023-02-04T03:28:38;6.57;;;1.30;;
21166;SDS011;10741;52.272;9.580;2023-02-04T03:31:05;5.80;;;1.47;;
21166;SDS011;10741;52.272;9.580;2023-02-04T03:33:30;2.93;;;1.07;;
21166;SDS011;10741;52.272;9.580;2023-02-04T03:35:56;5.33;;;1.40;;
21166;SDS011;10741;52.272;9.580;2023-02-04T03:38:23;7.10;;;1.40;;
21166;SDS011;10741;52.272;9.580;2023-02-04T03:40:49;5.50;;;1.20;;
21166;SDS011;10741;52.272;9.580;2023-02-04T03:43:14;4.80;;;1.57;;
21166;SDS011;10741;52.272;9.580;2023-02-04T03:45:40;8.33;;;1.33;;
21166;SDS011;10741;52.272;9.580;2023-02-04T03:48:06;1.93;;;0.97;;
21166;SDS011;10741;52.272;9.580;2023-02-04T03:50:32;2.50;;;0.80;;
21166;SDS011;10741;52.272;9.580;2023-02-04T03:52:57;2.13;;;0.97;;
21166;SDS011;10741;52.272;9.580;2023-02-04T03:55:23;1.10;;;1.00;;
21166;SDS011;10741;52.272;9.580;2023-02-04T03:57:50;2.70;;;1.10;;
21166;SDS011;10741;52.272;9.580;2023-02-04T04:00:16;3.00;;;1.20;;
21166;SDS011;10741;52.272;9.580;2023-02-04T04:02:42;1.93;;;1.10;;
21166;SDS011;10741;52.272;9.580;2023-02-04T04:05:09;2.50;;;1.47;;
21166;SDS011;10741;52.272;9.580;2023-02-04T04:07:35;2.53;;;1.20;;
21166;SDS011;10741;52.272;9.580;2023-02-04T04:10:01;2.77;;;1.20;;
21166;SDS011;10741;52.272;9.580;2023-02-04T04:12:27;2.10;;;1.00;;
21166;SDS011;10741;52.272;9.580;2023-02-04T04:14:53;1.20;;;1.00;;
21166;SDS011;10741;52.272;9.580;2023-02-04T04:17:20;3.37;;;1.03;;
21166;SDS011;10741;52.272;9.580;2023-02-04T04:19:46;1.30;;;1.20;;
21166;SDS011;10741;52.272;9.580;2023-02-04T04:22:13;1.30;;;1.20;;
21166;SDS011;10741;52.272;9.580;2023-02-04T04:24:39;1.30;;;1.17;;
21166;SDS011;10741;52.272;9.580;2023-02-04T04:27:05;2.83;;;1.23;;
21166;SDS011;10741;52.272;9.580;2023-02-04T04:29:31;2.67;;;1.43;;
21166;SDS011;10741;52.272;9.580;2023-02-04T04:31:57;2.03;;;1.20;;
21166;SDS011;10741;52.272;9.580;2023-02-04T04:34:22;1.50;;;1.03;;
21166;SDS011;10741;52.272;9.580;2023-02-04T04:36:48;2.10;;;0.97;;
21166;SDS011;10741;52.272;9.580;2023-02-04T04:39:14;2.60;;;1.40;;
21166;SDS011;10741;52.272;9.580;2023-02-04T04:41:40;2.50;;;1.13;;
21166;SDS011;10741;52.272;9.580;2023-02-04T04:44:05;1.77;;;1.20;;
21166;SDS011;10741;52.272;9.580;2023-02-04T04:46:31;2.30;;;1.40;;
21166;SDS011;10741;52.272;9.580;2023-02-04T04:48:57;3.07;;;1.20;;
21166;SDS011;10741;52.272;9.580;2023-02-04T04:51:23;3.27;;;1.40;;
21166;SDS011;10741;52.272;9.580;2023-02-04T04:53:49;1.97;;;1.47;;
21166;SDS011;10741;52.272;9.580;2023-02-04T04:56:15;3.57;;;1.33;;
21166;SDS011;10741;52.272;9.580;2023-02-04T04:58:40;2.47;;;1.03;;
21166;SDS011;10741;52.272;9.580;2023-02-04T05:01:06;1.83;;;1.30;;
21166;SDS011;10741;52.272;9.580;2023-02-04T05:03:32;1.80;;;1.37;;
21166;SDS011;10741;52.272;9.580;2023-02-04T05:05:57;3.10;;;1.17;;
21166;SDS011;10741;52.272;9.580;2023-02-04T05:08:23;1.57;;;1.27;;
21166;SDS011;10741;52.272;9.580;2023-02-04T05:10:49;2.57;;;1.27;;
21166;SDS011;10741;52.272;9.580;2023-02-04T05:13:15;3.93;;;1.17;;
21166;SDS011;10741;52.272;9.580;2023-02-04T05:15:40;2.57;;;1.67;;
21166;SDS011;10741;52.272;9.580;2023-02-04T05:18:06;3.17;;;1.30;;
21166;SDS011;10741;52.272;9.580;2023-02-04T05:20:32;2.43;;;1.50;;
21166;SDS011;10741;52.272;9.580;2023-02-04T05:22:58;2.50;;;1.50;;
21166;SDS011;10741;52.272;9.580;2023-02-04T05:25:25;3.30;;;1.40;;
21166;SDS011;10741;52.272;9.580;2023-02-04T05:27:52;1.70;;;1.50;;
21166;SDS011;10741;52.272;9.580;2023-02-04T05:30:19;3.37;;;1.40;;
21166;SDS011;10741;52.272;9.580;2023-02-04T05:32:46;2.27;;;1.37;;
21166;SDS011;10741;52.272;9.580;2023-02-04T05:35:11;2.30;;;1.67;;
21166;SDS011;10741;52.272;9.580;2023-02-04T05:37:37;5.33;;;1.70;;
21166;SDS011;10741;52.272;9.580;2023-02-04T05:40:03;2.83;;;1.63;;
21166;SDS011;10741;52.272;9.580;2023-02-04T05:42:30;4.40;;;1.40;;
21166;SDS011;10741;52.272;9.580;2023-02-04T05:44:56;1.97;;;1.33;;
21166;SDS011;10741;52.272;9.580;2023-02-04T05:47:21;2.80;;;1.67;;
21166;SDS011;10741;52.272;9.580;2023-02-04T05:49:47;3.17;;;1.80;;
21166;SDS011;10741;52.272;9.580;2023-02-04T05:52:13;2.63;;;1.30;;
21166;SDS011;10741;52.272;9.580;2023-02-04T05:54:38;2.13;;;1.40;;
21166;SDS011;10741;52.272;9.580;2023-02-04T05:57:04;3.00;;;1.23;;
21166;SDS011;10741;52.272;9.580;2023-02-04T05:59:30;1.37;;;1.27;;
21166;SDS011;10741;52.272;9.580;2023-02-04T06:01:56;2.63;;;1.63;;
21166;SDS011;10741;52.272;9.580;2023-02-04T06:04:21;1.40;;;1.30;;
21166;SDS011;10741;52.272;9.580;2023-02-04T06:06:47;3.60;;;1.77;;
21166;SDS011;10741;52.272;9.580;2023-02-04T06:09:13;3.90;;;1.53;;
21166;SDS011;10741;52.272;9.580;2023-02-04T06:11:38;2.63;;;1.70;;
21166;SDS011;10741;52.272;9.580;2023-02-04T06:14:04;3.10;;;1.80;;
21166;SDS011;10741;52.272;9.580;2023-02-04T06:16:31;3.13;;;1.77;;
21166;SDS011;10741;52.272;9.580;2023-02-04T06:18:56;4.47;;;1.87;;
21166;SDS011;10741;52.272;9.580;2023-02-04T06:21:22;3.73;;;1.77;;
21166;SDS011;10741;52.272;9.580;2023-02-04T06:23:48;2.67;;;1.77;;
21166;SDS011;10741;52.272;9.580;2023-02-04T06:26:13;2.60;;;1.97;;
21166;SDS011;10741;52.272;9.580;2023-02-04T06:28:39;3.60;;;2.13;;
21166;SDS011;10741;52.272;9.580;2023-02-04T06:31:05;3.20;;;2.10;;
21166;SDS011;10741;52.272;9.580;2023-02-04T06:33:33;4.37;;;2.00;;
21166;SDS011;10741;52.272;9.580;2023-02-04T06:36:01;4.90;;;2.10;;
21166;SDS011;10741;52.272;9.580;2023-02-04T06:38:28;2.83;;;2.50;;
21166;SDS011;10741;52.272;9.580;2023-02-04T06:40:54;2.40;;;2.20;;
21166;SDS011;10741;52.272;9.580;2023-02-04T06:43:20;4.47;;;2.23;;
21166;SDS011;10741;52.272;9.580;2023-02-04T06:45:46;3.43;;;2.60;;
21166;SDS011;10741;52.272;9.580;2023-02-04T06:48:12;4.87;;;2.90;;
21166;SDS011;10741;52.272;9.580;2023-02-04T06:50:38;4.30;;;3.00;;
21166;SDS011;10741;52.272;9.580;2023-02-04T06:53:03;5.83;;;4.23;;
21166;SDS011;10741;52.272;9.580;2023-02-04T06:55:29;5.67;;;4.07;;
21166;SDS011;10741;52.272;9.580;2023-02-04T06:57:55;6.23;;;4.00;;
21166;SDS011;10741;52.272;9.580;2023-02-04T07:00:21;7.90;;;6.10;;
21166;SDS011;10741;52.272;9.580;2023-02-04T07:02:47;21.57;;;12.97;;
21166;SDS011;10741;52.272;9.580;2023-02-04T07:05:12;29.30;;;16.80;;
21166;SDS011;10741;52.272;9.580;2023-02-04T07:07:38;18.20;;;10.57;;
21166;SDS011;10741;52.272;9.580;2023-02-04T07:10:04;17.90;;;10.37;;
21166;SDS011;10741;52.272;9.580;2023-02-04T07:12:30;9.73;;;6.53;;
21166;SDS011;10741;52.272;9.580;2023-02-04T07:14:55;7.53;;;4.93;;
21166;SDS011;10741;52.272;9.580;2023-02-04T07:17:21;6.23;;;4.63;;
21166;SDS011;10741;52.272;9.580;2023-02-04T07:19:47;5.80;;;3.93;;
21166;SDS011;10741;52.272;9.580;2023-02-04T07:22:13;6.47;;;4.10;;
21166;SDS011;10741;52.272;9.580;2023-02-04T07:24:39;5.57;;;4.20;;
21166;SDS011;10741;52.272;9.580;2023-02-04T07:27:05;8.83;;;4.30;;
21166;SDS011;10741;52.272;9.580;2023-02-04T07:29:30;5.40;;;4.07;;
21166;SDS011;10741;52.272;9.580;2023-02-04T07:31:56;7.27;;;4.00;;
21166;SDS011;10741;52.272;9.580;2023-02-04T07:34:22;4.87;;;3.20;;
21166;SDS011;10741;52.272;9.580;2023-02-04T07:36:48;7.97;;;4.20;;
21166;SDS011;10741;52.272;9.580;2023-02-04T07:39:13;5.07;;;4.00;;
21166;SDS011;10741;52.272;9.580;2023-02-04T07:41:39;5.60;;;4.10;;
21166;SDS011;10741;52.272;9.580;2023-02-04T07:44:05;4.60;;;3.63;;
21166;SDS011;10741;52.272;9.580;2023-02-04T07:46:31;4.23;;;3.50;;
21166;SDS011;10741;52.272;9.580;2023-02-04T07:48:57;3.50;;;2.70;;
21166;SDS011;10741;52.272;9.580;2023-02-04T07:51:22;2.43;;;2.23;;
21166;SDS011;10741;52.272;9.580;2023-02-04T07:53:48;3.33;;;2.53;;
21166;SDS011;10741;52.272;9.580;2023-02-04T07:56:14;2.87;;;2.40;;
21166;SDS011;10741;52.272;9.580;2023-02-04T07:58:40;2.73;;;2.10;;
21166;SDS011;10741;52.272;9.580;2023-02-04T08:01:05;3.47;;;2.10;;
21166;SDS011;10741;52.272;9.580;2023-02-04T08:03:31;3.77;;;2.10;;
21166;SDS011;10741;52.272;9.580;2023-02-04T08:05:57;1.90;;;1.70;;
21166;SDS011;10741;52.272;9.580;2023-02-04T08:08:22;3.00;;;2.10;;
21166;SDS011;10741;52.272;9.580;2023-02-04T08:10:48;2.03;;;1.80;;
21166;SDS011;10741;52.272;9.580;2023-02-04T08:13:14;3.90;;;1.50;;
21166;SDS011;10741;52.272;9.580;2023-02-04T08:15:40;2.83;;;1.70;;
21166;SDS011;10741;52.272;9.580;2023-02-04T08:18:06;2.70;;;1.60;;
21166;SDS011;10741;52.272;9.580;2023-02-04T08:20:31;2.00;;;1.60;;
21166;SDS011;10741;52.272;9.580;2023-02-04T08:22:57;2.47;;;1.80;;
21166;SDS011;10741;52.272;9.580;2023-02-04T08:25:23;2.03;;;1.80;;
21166;SDS011;10741;52.272;9.580;2023-02-04T08:27:49;4.03;;;1.80;;
21166;SDS011;10741;52.272;9.580;2023-02-04T08:30:15;2.30;;;1.93;;
21166;SDS011;10741;52.272;9.580;2023-02-04T08:32:41;2.00;;;1.77;;
21166;SDS011;10741;52.272;9.580;2023-02-04T08:35:07;2.90;;;1.93;;
21166;SDS011;10741;52.272;9.580;2023-02-04T08:37:33;3.37;;;1.80;;
21166;SDS011;10741;52.272;9.580;2023-02-04T08:39:58;4.30;;;2.00;;
21166;SDS011;10741;52.272;9.580;2023-02-04T08:42:24;5.23;;;2.30;;
21166;SDS011;10741;52.272;9.580;2023-02-04T08:44:50;3.20;;;2.07;;
21166;SDS011;10741;52.272;9.580;2023-02-04T08:47:16;2.30;;;2.10;;
21166;SDS011;10741;52.272;9.580;2023-02-04T08:49:42;3.27;;;2.20;;
21166;SDS011;10741;52.272;9.580;2023-02-04T08:52:07;4.47;;;2.20;;
21166;SDS011;10741;52.272;9.580;2023-02-04T08:54:34;3.53;;;2.20;;
21166;SDS011;10741;52.272;9.580;2023-02-04T08:57:00;3.00;;;2.40;;
21166;SDS011;10741;52.272;9.580;2023-02-04T08:59:26;4.40;;;2.50;;
21166;SDS011;10741;52.272;9.580;2023-02-04T09:01:52;4.83;;;2.30;;
21166;SDS011;10741;52.272;9.580;2023-02-04T09:04:18;6.23;;;2.30;;
21166;SDS011;10741;52.272;9.580;2023-02-04T09:06:45;2.73;;;2.03;;
21166;SDS011;10741;52.272;9.580;2023-02-04T09:09:11;2.60;;;2.07;;
21166;SDS011;10741;52.272;9.580;2023-02-04T09:11:37;3.53;;;2.10;;
21166;SDS011;10741;52.272;9.580;2023-02-04T09:14:03;4.67;;;2.00;;
21166;SDS011;10741;52.272;9.580;2023-02-04T09:16:29;2.97;;;2.10;;
21166;SDS011;10741;52.272;9.580;2023-02-04T09:18:55;3.20;;;1.90;;
21166;SDS011;10741;52.272;9.580;2023-02-04T09:21:23;3.00;;;2.10;;
21166;SDS011;10741;52.272;9.580;2023-02-04T09:23:49;4.03;;;2.10;;
21166;SDS011;10741;52.272;9.580;2023-02-04T09:26:14;4.87;;;2.40;;
21166;SDS011;10741;52.272;9.580;2023-02-04T09:28:40;4.17;;;2.10;;
21166;SDS011;10741;52.272;9.580;2023-02-04T09:31:06;2.47;;;1.97;;
21166;SDS011;10741;52.272;9.580;2023-02-04T09:33:33;4.63;;;2.00;;
21166;SDS011;10741;52.272;9.580;2023-02-04T09:35:59;2.40;;;1.80;;
21166;SDS011;10741;52.272;9.580;2023-02-04T09:38:25;2.47;;;1.47;;
21166;SDS011;10741;52.272;9.580;2023-02-04T09:40:59;3.47;;;1.17;;
21166;SDS011;10741;52.272;9.580;2023-02-04T09:43:29;2.33;;;1.20;;
21166;SDS011;10741;52.272;9.580;2023-02-04T09:45:57;3.90;;;1.33;;
21166;SDS011;10741;52.272;9.580;2023-02-04T09:48:23;1.93;;;1.40;;
21166;SDS011;10741;52.272;9.580;2023-02-04T09:50:50;2.30;;;1.40;;
21166;SDS011;10741;52.272;9.580;2023-02-04T09:53:20;3.10;;;1.57;;
21166;SDS011;10741;52.272;9.580;2023-02-04T09:55:48;1.90;;;1.43;;
21166;SDS011;10741;52.272;9.580;2023-02-04T09:58:16;2.33;;;1.37;;
21166;SDS011;10741;52.272;9.580;2023-02-04T10:00:44;2.67;;;1.40;;
21166;SDS011;10741;52.272;9.580;2023-02-04T10:03:16;2.97;;;1.30;;
21166;SDS011;10741;52.272;9.580;2023-02-04T10:05:43;3.20;;;1.37;;
21166;SDS011;10741;52.272;9.580;2023-02-04T10:08:14;2.83;;;1.33;;
21166;SDS011;10741;52.272;9.580;2023-02-04T10:10:45;2.53;;;1.80;;
21166;SDS011;10741;52.272;9.580;2023-02-04T10:13:15;2.67;;;1.20;;
21166;SDS011;10741;52.272;9.580;2023-02-04T10:15:48;1.73;;;1.50;;
21166;SDS011;10741;52.272;9.580;2023-02-04T10:18:24;3.67;;;1.37;;
21166;SDS011;10741;52.272;9.580;2023-02-04T10:20:57;2.40;;;1.57;;
21166;SDS011;10741;52.272;9.580;2023-02-04T10:23:36;2.83;;;1.50;;
21166;SDS011;10741;52.272;9.580;2023-02-04T10:26:02;2.13;;;1.47;;
21166;SDS011;10741;52.272;9.580;2023-02-04T10:28:34;3.50;;;1.80;;
21166;SDS011;10741;52.272;9.580;2023-02-04T10:31:01;3.47;;;1.40;;
21166;SDS011;10741;52.272;9.580;2023-02-04T10:33:27;2.10;;;1.33;;
21166;SDS011;10741;52.272;9.580;2023-02-04T10:35:54;2.70;;;1.30;;
21166;SDS011;10741;52.272;9.580;2023-02-04T10:38:21;2.00;;;1.27;;
21166;SDS011;10741;52.272;9.580;2023-02-04T10:40:47;1.57;;;1.17;;
21166;SDS011;10741;52.272;9.580;2023-02-04T10:43:24;2.70;;;1.30;;
21166;SDS011;10741;52.272;9.580;2023-02-04T10:46:02;1.60;;;1.40;;
21166;SDS011;10741;52.272;9.580;2023-02-04T10:48:29;1.37;;;1.07;;
21166;SDS011;10741;52.272;9.580;2023-02-04T10:51:03;2.77;;;1.60;;
21166;SDS011;10741;52.272;9.580;2023-02-04T10:53:29;2.00;;;1.20;;
21166;SDS011;10741;52.272;9.580;2023-02-04T10:56:17;3.43;;;1.60;;
21166;SDS011;10741;52.272;9.580;2023-02-04T10:58:45;2.73;;;1.40;;
21166;SDS011;10741;52.272;9.580;2023-02-04T11:01:13;2.67;;;1.40;;
21166;SDS011;10741;52.272;9.580;2023-02-04T11:03:41;3.27;;;1.80;;
21166;SDS011;10741;52.272;9.580;2023-02-04T11:06:11;2.23;;;1.40;;
21166;SDS011;10741;52.272;9.580;2023-02-04T11:08:41;2.23;;;1.40;;
21166;SDS011;10741;52.272;9.580;2023-02-04T11:18:52;2.90;;;1.57;;
21166;SDS011;10741;52.272;9.580;2023-02-04T11:21:24;3.23;;;1.40;;
21166;SDS011;10741;52.272;9.580;2023-02-04T11:26:41;2.77;;;1.27;;
21166;SDS011;10741;52.272;9.580;2023-02-04T11:31:41;3.57;;;1.80;;
21166;SDS011;10741;52.272;9.580;2023-02-04T11:39:36;2.40;;;1.50;;
21166;SDS011;10741;52.272;9.580;2023-02-04T11:42:04;1.60;;;1.30;;
21166;SDS011;10741;52.272;9.580;2023-02-04T11:44:38;3.00;;;1.80;;
21166;SDS011;10741;52.272;9.580;2023-02-04T11:47:06;2.27;;;1.63;;
21166;SDS011;10741;52.272;9.580;2023-02-04T11:49:34;3.17;;;1.77;;
21166;SDS011;10741;52.272;9.580;2023-02-04T11:52:04;4.67;;;1.70;;
21166;SDS011;10741;52.272;9.580;2023-02-04T11:54:34;1.70;;;1.30;;
21166;SDS011;10741;52.272;9.580;2023-02-04T11:57:00;2.30;;;1.60;;
21166;SDS011;10741;52.272;9.580;2023-02-04T11:59:26;3.40;;;1.30;;
21166;SDS011;10741;52.272;9.580;2023-02-04T12:02:05;3.10;;;1.43;;
21166;SDS011;10741;52.272;9.580;2023-02-04T12:05:07;3.07;;;1.53;;
21166;SDS011;10741;52.272;9.580;2023-02-04T12:07:35;1.47;;;1.30;;
21166;SDS011;10741;52.272;9.580;2023-02-04T12:10:12;2.27;;;1.30;;
21166;SDS011;10741;52.272;9.580;2023-02-04T12:12:49;2.33;;;1.40;;
21166;SDS011;10741;52.272;9.580;2023-02-04T12:18:09;2.03;;;1.50;;
21166;SDS011;10741;52.272;9.580;2023-02-04T12:20:37;3.07;;;1.20;;
21166;SDS011;10741;52.272;9.580;2023-02-04T12:23:03;1.83;;;1.20;;
21166;SDS011;10741;52.272;9.580;2023-02-04T12:25:30;1.67;;;1.57;;
21166;SDS011;10741;52.272;9.580;2023-02-04T12:27:56;2.60;;;1.77;;
21166;SDS011;10741;52.272;9.580;2023-02-04T12:30:22;2.20;;;1.50;;
21166;SDS011;10741;52.272;9.580;2023-02-04T12:32:49;2.33;;;1.47;;
21166;SDS011;10741;52.272;9.580;2023-02-04T12:35:15;1.87;;;1.50;;
21166;SDS011;10741;52.272;9.580;2023-02-04T12:37:42;3.30;;;1.90;;
21166;SDS011;10741;52.272;9.580;2023-02-04T12:40:15;3.60;;;1.60;;
21166;SDS011;10741;52.272;9.580;2023-02-04T12:42:43;1.47;;;1.37;;
21166;SDS011;10741;52.272;9.580;2023-02-04T12:45:09;2.53;;;1.50;;
21166;SDS011;10741;52.272;9.580;2023-02-04T12:47:36;1.83;;;1.40;;
21166;SDS011;10741;52.272;9.580;2023-02-04T12:50:03;2.60;;;1.33;;
21166;SDS011;10741;52.272;9.580;2023-02-04T12:52:29;4.00;;;1.37;;
21166;SDS011;10741;52.272;9.580;2023-02-04T12:54:54;2.40;;;1.23;;
21166;SDS011;10741;52.272;9.580;2023-02-04T12:57:20;2.40;;;1.23;;
21166;SDS011;10741;52.272;9.580;2023-02-04T12:59:46;2.57;;;1.10;;
21166;SDS011;10741;52.272;9.580;2023-02-04T13:02:13;1.93;;;1.17;;
21166;SDS011;10741;52.272;9.580;2023-02-04T13:04:39;1.70;;;1.03;;
21166;SDS011;10741;52.272;9.580;2023-02-04T13:07:06;1.77;;;1.00;;
21166;SDS011;10741;52.272;9.580;2023-02-04T13:09:33;3.37;;;1.00;;
21166;SDS011;10741;52.272;9.580;2023-02-04T13:11:59;2.20;;;1.30;;
21166;SDS011;10741;52.272;9.580;2023-02-04T13:14:25;2.03;;;1.27;;
21166;SDS011;10741;52.272;9.580;2023-02-04T13:16:51;3.10;;;1.03;;
21166;SDS011;10741;52.272;9.580;2023-02-04T13:19:16;1.37;;;1.23;;
21166;SDS011;10741;52.272;9.580;2023-02-04T13:21:42;2.00;;;1.03;;
21166;SDS011;10741;52.272;9.580;2023-02-04T13:24:08;1.73;;;1.10;;
21166;SDS011;10741;52.272;9.580;2023-02-04T13:26:34;2.50;;;1.30;;
21166;SDS011;10741;52.272;9.580;2023-02-04T13:28:59;2.47;;;1.20;;
21166;SDS011;10741;52.272;9.580;2023-02-04T13:31:25;1.60;;;1.00;;
21166;SDS011;10741;52.272;9.580;2023-02-04T13:33:51;2.10;;;1.43;;
21166;SDS011;10741;52.272;9.580;2023-02-04T13:36:16;1.30;;;0.93;;
21166;SDS011;10741;52.272;9.580;2023-02-04T13:38:42;2.93;;;1.43;;
21166;SDS011;10741;52.272;9.580;2023-02-04T13:41:08;2.77;;;1.83;;
21166;SDS011;10741;52.272;9.580;2023-02-04T13:43:34;1.53;;;1.10;;
21166;SDS011;10741;52.272;9.580;2023-02-04T13:46:00;2.97;;;1.30;;
21166;SDS011;10741;52.272;9.580;2023-02-04T13:48:28;1.47;;;1.13;;
21166;SDS011;10741;52.272;9.580;2023-02-04T13:50:54;1.73;;;1.23;;
21166;SDS011;10741;52.272;9.580;2023-02-04T13:53:19;2.47;;;1.40;;
21166;SDS011;10741;52.272;9.580;2023-02-04T13:55:45;2.93;;;1.83;;
21166;SDS011;10741;52.272;9.580;2023-02-04T13:58:11;3.27;;;1.60;;
21166;SDS011;10741;52.272;9.580;2023-02-04T14:00:37;2.60;;;1.50;;
21166;SDS011;10741;52.272;9.580;2023-02-04T14:03:03;3.47;;;1.47;;
21166;SDS011;10741;52.272;9.580;2023-02-04T14:05:29;2.33;;;1.30;;
21166;SDS011;10741;52.272;9.580;2023-02-04T14:07:54;1.87;;;1.50;;
21166;SDS011;10741;52.272;9.580;2023-02-04T14:10:20;2.40;;;1.40;;
21166;SDS011;10741;52.272;9.580;2023-02-04T14:12:49;2.50;;;1.30;;
21166;SDS011;10741;52.272;9.580;2023-02-04T14:15:15;1.87;;;1.20;;
21166;SDS011;10741;52.272;9.580;2023-02-04T14:17:41;2.03;;;1.60;;
21166;SDS011;10741;52.272;9.580;2023-02-04T14:20:07;2.93;;;1.47;;
21166;SDS011;10741;52.272;9.580;2023-02-04T14:22:33;2.13;;;1.60;;
21166;SDS011;10741;52.272;9.580;2023-02-04T14:24:59;2.30;;;1.30;;
21166;SDS011;10741;52.272;9.580;2023-02-04T14:27:25;3.03;;;1.30;;
21166;SDS011;10741;52.272;9.580;2023-02-04T14:29:51;3.67;;;1.57;;
21166;SDS011;10741;52.272;9.580;2023-02-04T14:32:17;3.33;;;1.67;;
21166;SDS011;10741;52.272;9.580;2023-02-04T14:34:45;2.63;;;1.90;;
21166;SDS011;10741;52.272;9.580;2023-02-04T14:37:11;3.40;;;2.07;;
21166;SDS011;10741;52.272;9.580;2023-02-04T14:39:37;3.30;;;1.70;;
21166;SDS011;10741;52.272;9.580;2023-02-04T14:42:02;6.17;;;1.90;;
21166;SDS011;10741;52.272;9.580;2023-02-04T14:44:29;2.50;;;1.63;;
21166;SDS011;10741;52.272;9.580;2023-02-04T14:46:56;3.20;;;1.93;;
21166;SDS011;10741;52.272;9.580;2023-02-04T14:49:21;3.50;;;1.70;;
21166;SDS011;10741;52.272;9.580;2023-02-04T14:51:47;4.00;;;1.97;;
21166;SDS011;10741;52.272;9.580;2023-02-04T14:54:13;3.23;;;1.90;;
21166;SDS011;10741;52.272;9.580;2023-02-04T14:56:40;3.00;;;1.70;;
21166;SDS011;10741;52.272;9.580;2023-02-04T14:59:06;2.90;;;1.60;;
21166;SDS011;10741;52.272;9.580;2023-02-04T15:01:32;1.90;;;1.60;;
21166;SDS011;10741;52.272;9.580;2023-02-04T15:03:57;2.73;;;1.77;;
21166;SDS011;10741;52.272;9.580;2023-02-04T15:06:23;3.13;;;1.90;;